CheckWX is a tool to help pilots better visualize weather data.  It is not intended as a substitute for an official pre-flight weather briefing.

15:39:15 UTC

OMRK TAF
Ras Al Khaimah International Airport
Ras Al Khaimah, United Arab Emirates
TAF OMRK 221104Z 2212/2318 33016KT 7000 NSC BECMG 2214/2216 10007KT BECMG 2309/2311 35012KT PROB30 TEMPO 2310/2315 VRB20G30KT 3000 BLDU FEW040CB BECMG 2314/2316 10007KT

Aug-22@
12:00 UTC

Aug-22 @ 12:00 UTC

Aug-22@
14:00 UTC

Aug-22 @ 14:00 UTC

TAF OMRK 221104Z 2212/2318 33016KT 7000 NSC

Expired

Wind
  • 330° at 16 KTS
Cloud Levels
  • No significant clouds

Aug-22@
14:00 UTC

Aug-22 @ 14:00 UTC

Aug-23@
09:00 UTC

Aug-23 @ 09:00 UTC

BECMG 2214/2216 10007KT

Becoming

Becoming Conditions expected by Thu, Aug 22, 2019 @ 16:00 UTC

Wind
  • 100° at 7 KTS
Cloud Levels
  • No significant clouds

Aug-23@
09:00 UTC

Aug-23 @ 09:00 UTC

Aug-23@
14:00 UTC

Aug-23 @ 14:00 UTC

BECMG 2309/2311 35012KT

Becoming

Becoming Conditions expected by Fri, Aug 23, 2019 @ 11:00 UTC

Wind
  • 350° at 12 KTS
Cloud Levels
  • No significant clouds

Aug-23@
10:00 UTC

Aug-23 @ 10:00 UTC

Aug-23@
15:00 UTC

Aug-23 @ 15:00 UTC

PROB30 TEMPO 2310/2315 VRB20G30KT 3000 BLDU FEW040CB

Temporary - 30% Likelihood

Temporary - 30% Likelihood during this time.

Wind
  • Variable at 20 KTS
  • {Gusting to 30 KTS
Conditions
Blowing Dust
Cloud Levels
  • Few at 4,000' AGL

Aug-23@
14:00 UTC

Aug-23 @ 14:00 UTC

Aug-23@
18:00 UTC

Aug-23 @ 18:00 UTC

BECMG 2314/2316 10007KT

Becoming

Becoming Conditions expected by Fri, Aug 23, 2019 @ 16:00 UTC

Wind
  • 100° at 7 KTS
Cloud Levels
  • No significant clouds